x

Molasses Reef, Fl (mlrf1) Weather Station

1:00pm - Wed 1st Mar 2017 All times are EST. -5 hours from GMT.

  • Wind
    16mph, 17mph gusts
  • Sea Temp 78°f
  • Air Temp 77°f
  • Sea Pressure 1019.7mb
  • Molasses Reef, Fl
  • Molasses Reef, Fl

More Historic Weather Station data

Upgrade to MSW Pro to gain access to the past 30 days of data for over 8000 Wavebouys and Weather Stations around the globe.

Join Pro

Comparision Forecast

View Surf forecast
   
Wed 03/01 1:00pm 16 17 mph 1019.7mb 78f 77f
12:00pm 14 15 mph 1020.8mb 77f 77f
11:00am 14 15 mph 1021.4mb 77f 77f
10:00am 14 16 mph 1021.3mb 77f 77f
9:00am 17 18 mph 1021.1mb 77f 77f
8:00am 16 18 mph 1020.8mb 76f 77f
7:00am 15 17 mph 1020.6mb 76f 76f
6:00am 16 17 mph 1019.8mb 76f 76f
5:00am 17 18 mph 1019.7mb 76f 76f
4:00am 18 21 mph 1019.8mb 76f 76f
3:00am 18
mph
1020.4mb 77f 76f
2:00am 21 22 mph 1020.6mb 77f 76f
1:00am 17 20 mph 1021.5mb 77f 76f
12:00am 20 23 mph 1021.7mb 77f 76f
Tue 02/28 11:00pm 20 22 mph 1021.9mb 77f 77f
10:00pm 15 17 mph 1022.1mb 77f 77f
9:00pm 15 17 mph 1021.9mb 77f 77f
8:00pm 14 15 mph 1021.5mb 77f 77f
7:00pm 16 18 mph 1021.4mb 77f 77f
6:00pm 16 18 mph 1021.1mb 77f 77f
5:00pm 17 18 mph 1021.2mb 77f 77f
4:00pm 15 17 mph 1021.7mb 77f 77f
3:00pm 17 18 mph 1021.8mb 77f 77f
2:00pm 15 16 mph 1022.5mb 77f 77f
1:00pm 18
mph
- - 77f
12:00pm 16 18 mph 1024.5mb 77f 77f
11:00am 20 21 mph 1025.1mb 77f 77f
9:00am 20 22 mph 1024.7mb 76f 77f
8:00am 18 21 mph 1024mb 76f 77f
7:00am 18 20 mph 1023.6mb 76f 76f
6:00am 20 21 mph 1023.3mb 76f 76f
5:00am 18 21 mph 1022.7mb 76f 77f
4:00am 20 23 mph 1022.4mb 76f 77f
3:00am 20
mph
- - 77f
2:00am 16 18 mph 1023.3mb 76f 77f
12:00am 16 20 mph 1023.7mb 76f 78f
Mon 02/27 11:00pm 16 17 mph 1023.8mb 76f 78f
4:00pm 18 21 mph 1021mb 76f 77f
3:00pm 17 18 mph 1021.4mb 76f 77f
1:00pm 18 21 mph 1022.5mb 76f 77f
12:00pm 18
mph
1023.4mb 76f 77f
11:00am 17 21 mph 1023.8mb 76f 77f
10:00am 20 22 mph 1023.6mb 76f 77f
9:00am 21 23 mph 1023.2mb 75f 77f
8:00am 22 24 mph 1022.4mb 75f 76f
7:00am 22 24 mph 1021.8mb 75f 76f
6:00am 21 22 mph 1021.1mb 75f 76f
5:00am 17 18 mph 1020.7mb 75f 76f
4:00am 17 20 mph 1020.5mb 75f 76f
3:00am 20 22 mph 1020mb 75f 76f
2:00am 17 20 mph 1020mb 74f 76f
1:00am 18 20 mph 1020.3mb 74f 76f
Sun 02/26 11:00pm 21 22 mph 1020.5mb 75f 76f
5:00pm 18 20 mph 1018.4mb 76f 76f
4:00pm 20 22 mph 1018.1mb 76f 76f
3:00pm 18 21 mph 1018.1mb 76f 75f
2:00pm 17 20 mph 1018.3mb 76f 74f
1:00pm 15
mph
1019mb - 74f
12:00pm 14 16 mph 1019.7mb 75f 73f
10:00am 16 17 mph 1019.8mb 74f 72f
9:00am 17 18 mph 1019.3mb 74f 71f
8:00am 15 16 mph 1018.7mb 74f 69f
7:00am 15 17 mph 1018.1mb 74f 69f
Sat 02/25 10:00pm 9 10 mph 1015.7mb - 71f
9:00pm 13 15 mph 1015.4mb 75f 72f